Electra — WQ5910 — position and weather

sailwx.info

Track history (hours):
 
Tides and Currents Weather Stations Pressure Air Temp Water Temp Dewpoint Dewpoint Depression Visibility Wind Speed Wind Dir Waves Ship Positions

Electra

Owner: HELGREN, RICHARD F, OCEANSIDE, CA. More information available from US FCC via Universal Licensing System and Coast Guard Vessel Documentation Center.

Last reported at 2017-Oct-21 23:01 UTC. Time now 2017-Oct-22 08:08 UTC.
Position N 33°12' W 117°24'.

Length 24 m.

Type: Wing in ground effect craft. MMSI: 367394780.

Date/timePositionNaut miles runAvg speedWind from/ knotsBaromVisibWave heightAir tempDewpointWater temp
2017-Oct-21 23:01N 33°12' W 117°24'010.0
2017-Oct-21 23:00N 33°12' W 117°24'5 9.1
2017-Oct-21 22:30N 33°08' W 117°22'5 9.4
2017-Oct-21 22:00N 33°04' W 117°20'4 8.8
2017-Oct-21 21:30N 32°60' W 117°17'0 0.1
2017-Oct-21 21:00N 32°60' W 117°17'0 0.1
2017-Oct-21 20:30N 32°60' W 117°17'3 6.4
2017-Oct-21 20:00N 32°57' W 117°18'0 0.0
2017-Oct-21 19:30N 32°57' W 117°18'1 1.1
2017-Oct-21 19:00N 32°57' W 117°18'1 1.4
2017-Oct-21 18:30N 32°56' W 117°19'0 0.0
2017-Oct-21 18:00N 32°56' W 117°19'0 0.1
2017-Oct-21 17:30N 32°56' W 117°19'1 1.1
2017-Oct-21 17:00N 32°56' W 117°18'1 1.3
2017-Oct-21 16:30N 32°57' W 117°18'0 0.1
2017-Oct-21 16:00N 32°57' W 117°18'4 8.3
2017-Oct-21 15:30N 33°00' W 117°20'510.0
2017-Oct-21 15:00N 33°05' W 117°22'510.1
2017-Oct-21 14:30N 33°10' W 117°24'2 0.1
2017-Oct-19 15:58N 33°12' W 117°24'2 3.7
2017-Oct-19 15:31N 33°11' W 117°25'1 0.1
2017-Oct-18 22:06N 33°12' W 117°24'1 9.4
2017-Oct-18 22:00N 33°12' W 117°24'5 9.7
2017-Oct-18 21:30N 33°07' W 117°21'1 1.6
2017-Oct-18 21:00N 33°07' W 117°20'0 0.0
2017-Oct-18 20:30N 33°07' W 117°20'0 0.3
2017-Oct-18 20:00N 33°07' W 117°20'0 0.0
2017-Oct-18 19:30N 33°07' W 117°20'0 0.0
2017-Oct-18 19:01N 33°07' W 117°20'4 8.2
2017-Oct-18 18:31N 33°10' W 117°23'0 0.0
2017-Oct-18 18:01N 33°10' W 117°23'1 2.5
2017-Oct-18 17:30N 33°10' W 117°24'2 0.1
2017-Oct-17 22:11N 33°12' W 117°24'1 2.7
2017-Oct-17 22:00N 33°12' W 117°24'2 3.3
2017-Oct-17 21:30N 33°10' W 117°23'0 0.7
2017-Oct-17 21:00N 33°10' W 117°23'0 0.0
2017-Oct-17 20:30N 33°10' W 117°23'0 0.0
2017-Oct-17 20:00N 33°10' W 117°23'3 5.1
2017-Oct-17 19:30N 33°12' W 117°25'1 2.2
2017-Oct-17 19:00N 33°13' W 117°26'0 0.1
2017-Oct-17 18:30N 33°12' W 117°26'2 3.7
2017-Oct-17 18:00N 33°11' W 117°28'1 1.6
2017-Oct-17 17:30N 33°12' W 117°27'3 6.3
2017-Oct-17 17:00N 33°12' W 117°23'0 0.0
2017-Oct-17 16:29N 33°12' W 117°23'1 0.0
2017-Oct-16 22:14N 33°12' W 117°24'2 9.7
2017-Oct-16 22:00N 33°10' W 117°23'5 9.1
2017-Oct-16 21:30N 33°05' W 117°22'2 4.8
2017-Oct-16 21:00N 33°03' W 117°21'0 0.0
2017-Oct-16 20:30N 33°03' W 117°21'0 0.1
2017-Oct-16 20:00N 33°03' W 117°21'0 0.6
2017-Oct-16 19:30N 33°03' W 117°21'0 0.4
2017-Oct-16 19:00N 33°03' W 117°21'0 0.1
2017-Oct-16 18:30N 33°03' W 117°21'2 4.7
2017-Oct-16 18:00N 33°05' W 117°22'510.2
2017-Oct-16 17:30N 33°10' W 117°24'1 0.1
2017-Oct-16 00:43N 33°11' W 117°25'0 1.4
2017-Oct-16 00:30N 33°11' W 117°25'1 0.9
2017-Oct-15 22:56N 33°12' W 117°24'2 4.8
2017-Oct-15 22:31N 33°11' W 117°23'4 7.1
2017-Oct-15 22:00N 33°07' W 117°21'0 0.7
2017-Oct-15 21:30N 33°08' W 117°20'0 0.0
2017-Oct-15 21:00N 33°08' W 117°20'1 1.7
2017-Oct-15 20:30N 33°07' W 117°20'2 5.0
2017-Oct-15 20:00N 33°04' W 117°19'2 4.5
2017-Oct-15 19:30N 33°03' W 117°21'0 0.4
2017-Oct-15 19:00N 33°03' W 117°21'0 0.3
2017-Oct-15 18:30N 33°03' W 117°21'0 0.3
2017-Oct-15 18:00N 33°03' W 117°21'0 0.5
2017-Oct-15 17:30N 33°03' W 117°21'0 0.1
2017-Oct-15 17:00N 33°03' W 117°21'0 0.1
2017-Oct-15 16:30N 33°03' W 117°21'0 0.5
2017-Oct-15 16:00N 33°03' W 117°21'1 2.3
2017-Oct-15 15:30N 33°04' W 117°22'1 3.0
2017-Oct-15 15:00N 33°06' W 117°22'7 6.8
2017-Oct-15 14:01N 33°12' W 117°23'0 0.0
2017-Oct-15 13:30N 33°12' W 117°23'0 0.0
2017-Oct-15 13:00N 33°12' W 117°23'0 0.0
2017-Oct-15 12:30N 33°12' W 117°23'0 0.0
2017-Oct-15 12:00N 33°12' W 117°23'0 0.0
2017-Oct-15 11:30N 33°12' W 117°23'0 0.0
2017-Oct-15 11:00N 33°12' W 117°23'0 0.0
2017-Oct-15 10:30N 33°12' W 117°23'0 0.0
2017-Oct-15 10:00N 33°12' W 117°23'0 0.0
2017-Oct-15 09:30N 33°12' W 117°23'0 0.0
2017-Oct-15 09:00N 33°12' W 117°23'0 0.0
2017-Oct-15 08:30N 33°12' W 117°23'0 0.0
2017-Oct-15 08:00N 33°12' W 117°23'0 0.0
2017-Oct-15 07:30N 33°12' W 117°23'0 0.0
2017-Oct-15 07:00N 33°12' W 117°23'0 0.0
2017-Oct-15 06:30N 33°12' W 117°23'0 0.0
2017-Oct-15 06:00N 33°12' W 117°23'0 0.0
2017-Oct-15 05:30N 33°12' W 117°23'0 0.0
2017-Oct-15 05:00N 33°12' W 117°23'0 0.0
2017-Oct-15 04:30N 33°12' W 117°23'0 0.0
2017-Oct-15 04:00N 33°12' W 117°23'0 0.0
2017-Oct-15 03:30N 33°12' W 117°23'0 0.0
2017-Oct-15 03:00N 33°12' W 117°23'0 0.0
2017-Oct-15 02:30N 33°12' W 117°23'0 0.0
2017-Oct-15 02:00N 33°12' W 117°23'2 5.0
2017-Oct-15 01:30N 33°10' W 117°24'1 1.5
2017-Oct-15 01:00N 33°09' W 117°24'2 3.3
2017-Oct-15 00:30N 33°11' W 117°24'2 3.4
2017-Oct-15 00:00N 33°12' W 117°23'0 0.0
2017-Oct-14 23:30N 33°12' W 117°23'2 4.6
2017-Oct-14 23:00N 33°11' W 117°26'2 4.1
2017-Oct-14 22:30N 33°10' W 117°27'2 3.6
2017-Oct-14 22:00N 33°10' W 117°25'3 6.1
2017-Oct-14 21:30N 33°12' W 117°23'  
Track history (hours):
 
Tides and Currents Weather Stations Pressure Air Temp Water Temp Dewpoint Dewpoint Depression Visibility Wind Speed Wind Dir Waves Ship Positions

Electra

Owner: HELGREN, RICHARD F, OCEANSIDE, CA. More information available from US FCC via Universal Licensing System and Coast Guard Vessel Documentation Center.

Last reported at 2017-Oct-21 23:01 UTC. Time now 2017-Oct-22 08:08 UTC.
Position N 33°12' W 117°24'.

Length 24 m.

Type: Wing in ground effect craft. MMSI: 367394780.

Date/timePositionNaut miles runAvg speedWind from/ knotsBaromVisibWave heightAir tempDewpointWater temp
2017-Oct-21 23:01N 33°12' W 117°24'010.0
2017-Oct-21 23:00N 33°12' W 117°24'5 9.1
2017-Oct-21 22:30N 33°08' W 117°22'5 9.4
2017-Oct-21 22:00N 33°04' W 117°20'4 8.8
2017-Oct-21 21:30N 32°60' W 117°17'0 0.1
2017-Oct-21 21:00N 32°60' W 117°17'0 0.1
2017-Oct-21 20:30N 32°60' W 117°17'3 6.4
2017-Oct-21 20:00N 32°57' W 117°18'0 0.0
2017-Oct-21 19:30N 32°57' W 117°18'1 1.1
2017-Oct-21 19:00N 32°57' W 117°18'1 1.4
2017-Oct-21 18:30N 32°56' W 117°19'0 0.0
2017-Oct-21 18:00N 32°56' W 117°19'0 0.1
2017-Oct-21 17:30N 32°56' W 117°19'1 1.1
2017-Oct-21 17:00N 32°56' W 117°18'1 1.3
2017-Oct-21 16:30N 32°57' W 117°18'0 0.1
2017-Oct-21 16:00N 32°57' W 117°18'4 8.3
2017-Oct-21 15:30N 33°00' W 117°20'510.0
2017-Oct-21 15:00N 33°05' W 117°22'510.1
2017-Oct-21 14:30N 33°10' W 117°24'2 0.1
2017-Oct-19 15:58N 33°12' W 117°24'2 3.7
2017-Oct-19 15:31N 33°11' W 117°25'1 0.1
2017-Oct-18 22:06N 33°12' W 117°24'1 9.4
2017-Oct-18 22:00N 33°12' W 117°24'5 9.7
2017-Oct-18 21:30N 33°07' W 117°21'1 1.6
2017-Oct-18 21:00N 33°07' W 117°20'0 0.0
2017-Oct-18 20:30N 33°07' W 117°20'0 0.3
2017-Oct-18 20:00N 33°07' W 117°20'0 0.0
2017-Oct-18 19:30N 33°07' W 117°20'0 0.0
2017-Oct-18 19:01N 33°07' W 117°20'4 8.2
2017-Oct-18 18:31N 33°10' W 117°23'0 0.0
2017-Oct-18 18:01N 33°10' W 117°23'1 2.5
2017-Oct-18 17:30N 33°10' W 117°24'2 0.1
2017-Oct-17 22:11N 33°12' W 117°24'1 2.7
2017-Oct-17 22:00N 33°12' W 117°24'2 3.3
2017-Oct-17 21:30N 33°10' W 117°23'0 0.7
2017-Oct-17 21:00N 33°10' W 117°23'0 0.0
2017-Oct-17 20:30N 33°10' W 117°23'0 0.0
2017-Oct-17 20:00N 33°10' W 117°23'3 5.1
2017-Oct-17 19:30N 33°12' W 117°25'1 2.2
2017-Oct-17 19:00N 33°13' W 117°26'0 0.1
2017-Oct-17 18:30N 33°12' W 117°26'2 3.7
2017-Oct-17 18:00N 33°11' W 117°28'1 1.6
2017-Oct-17 17:30N 33°12' W 117°27'3 6.3
2017-Oct-17 17:00N 33°12' W 117°23'0 0.0
2017-Oct-17 16:29N 33°12' W 117°23'1 0.0
2017-Oct-16 22:14N 33°12' W 117°24'2 9.7
2017-Oct-16 22:00N 33°10' W 117°23'5 9.1
2017-Oct-16 21:30N 33°05' W 117°22'2 4.8
2017-Oct-16 21:00N 33°03' W 117°21'0 0.0
2017-Oct-16 20:30N 33°03' W 117°21'0 0.1
2017-Oct-16 20:00N 33°03' W 117°21'0 0.6
2017-Oct-16 19:30N 33°03' W 117°21'0 0.4
2017-Oct-16 19:00N 33°03' W 117°21'0 0.1
2017-Oct-16 18:30N 33°03' W 117°21'2 4.7
2017-Oct-16 18:00N 33°05' W 117°22'510.2
2017-Oct-16 17:30N 33°10' W 117°24'1 0.1
2017-Oct-16 00:43N 33°11' W 117°25'0 1.4
2017-Oct-16 00:30N 33°11' W 117°25'1 0.9
2017-Oct-15 22:56N 33°12' W 117°24'2 4.8
2017-Oct-15 22:31N 33°11' W 117°23'4 7.1
2017-Oct-15 22:00N 33°07' W 117°21'0 0.7
2017-Oct-15 21:30N 33°08' W 117°20'0 0.0
2017-Oct-15 21:00N 33°08' W 117°20'1 1.7
2017-Oct-15 20:30N 33°07' W 117°20'2 5.0
2017-Oct-15 20:00N 33°04' W 117°19'2 4.5
2017-Oct-15 19:30N 33°03' W 117°21'0 0.4
2017-Oct-15 19:00N 33°03' W 117°21'0 0.3
2017-Oct-15 18:30N 33°03' W 117°21'0 0.3
2017-Oct-15 18:00N 33°03' W 117°21'0 0.5
2017-Oct-15 17:30N 33°03' W 117°21'0 0.1
2017-Oct-15 17:00N 33°03' W 117°21'0 0.1
2017-Oct-15 16:30N 33°03' W 117°21'0 0.5
2017-Oct-15 16:00N 33°03' W 117°21'1 2.3
2017-Oct-15 15:30N 33°04' W 117°22'1 3.0
2017-Oct-15 15:00N 33°06' W 117°22'7 6.8
2017-Oct-15 14:01N 33°12' W 117°23'0 0.0
2017-Oct-15 13:30N 33°12' W 117°23'0 0.0
2017-Oct-15 13:00N 33°12' W 117°23'0 0.0
2017-Oct-15 12:30N 33°12' W 117°23'0 0.0
2017-Oct-15 12:00N 33°12' W 117°23'0 0.0
2017-Oct-15 11:30N 33°12' W 117°23'0 0.0
2017-Oct-15 11:00N 33°12' W 117°23'0 0.0
2017-Oct-15 10:30N 33°12' W 117°23'0 0.0
2017-Oct-15 10:00N 33°12' W 117°23'0 0.0
2017-Oct-15 09:30N 33°12' W 117°23'0 0.0
2017-Oct-15 09:00N 33°12' W 117°23'0 0.0
2017-Oct-15 08:30N 33°12' W 117°23'0 0.0
2017-Oct-15 08:00N 33°12' W 117°23'0 0.0
2017-Oct-15 07:30N 33°12' W 117°23'0 0.0
2017-Oct-15 07:00N 33°12' W 117°23'0 0.0
2017-Oct-15 06:30N 33°12' W 117°23'0 0.0
2017-Oct-15 06:00N 33°12' W 117°23'0 0.0
2017-Oct-15 05:30N 33°12' W 117°23'0 0.0
2017-Oct-15 05:00N 33°12' W 117°23'0 0.0
2017-Oct-15 04:30N 33°12' W 117°23'0 0.0
2017-Oct-15 04:00N 33°12' W 117°23'0 0.0
2017-Oct-15 03:30N 33°12' W 117°23'0 0.0
2017-Oct-15 03:00N 33°12' W 117°23'0 0.0
2017-Oct-15 02:30N 33°12' W 117°23'0 0.0
2017-Oct-15 02:00N 33°12' W 117°23'2 5.0
2017-Oct-15 01:30N 33°10' W 117°24'1 1.5
2017-Oct-15 01:00N 33°09' W 117°24'2 3.3
2017-Oct-15 00:30N 33°11' W 117°24'2 3.4
2017-Oct-15 00:00N 33°12' W 117°23'0 0.0
2017-Oct-14 23:30N 33°12' W 117°23'2 4.6
2017-Oct-14 23:00N 33°11' W 117°26'2 4.1
2017-Oct-14 22:30N 33°10' W 117°27'2 3.6
2017-Oct-14 22:00N 33°10' W 117°25'3 6.1
2017-Oct-14 21:30N 33°12' W 117°23'  

Dump ship's entire track history